sensor_id;sensor_type;location;lat;lon;timestamp;pressure;altitude;pressure_sealevel;temperature;humidity
56604;BME280;42486;47.478;19.036;2023-05-02T00:00:02;100303.06;;;12.46;58.25
56604;BME280;42486;47.478;19.036;2023-05-02T00:03:05;100311.97;;;12.54;56.76
56604;BME280;42486;47.478;19.036;2023-05-02T00:06:10;100311.66;;;12.69;58.44
56604;BME280;42486;47.478;19.036;2023-05-02T00:09:14;100306.28;;;12.70;57.65
56604;BME280;42486;47.478;19.036;2023-05-02T00:12:18;100306.44;;;12.69;58.63
56604;BME280;42486;47.478;19.036;2023-05-02T00:15:21;100316.38;;;12.75;60.28
56604;BME280;42486;47.478;19.036;2023-05-02T00:18:25;100300.72;;;12.64;58.93
56604;BME280;42486;47.478;19.036;2023-05-02T00:21:28;100312.34;;;12.71;58.87
56604;BME280;42486;47.478;19.036;2023-05-02T00:24:31;100303.47;;;12.62;58.56
56604;BME280;42486;47.478;19.036;2023-05-02T00:27:34;100309.41;;;12.64;58.83
56604;BME280;42486;47.478;19.036;2023-05-02T00:30:41;100309.16;;;12.67;59.34
56604;BME280;42486;47.478;19.036;2023-05-02T00:33:45;100310.81;;;12.68;57.23
56604;BME280;42486;47.478;19.036;2023-05-02T00:36:49;100306.47;;;12.78;54.63
56604;BME280;42486;47.478;19.036;2023-05-02T00:39:53;100312.94;;;12.95;54.11
56604;BME280;42486;47.478;19.036;2023-05-02T00:42:56;100317.78;;;13.00;54.10
56604;BME280;42486;47.478;19.036;2023-05-02T00:45:59;100305.81;;;13.07;54.99
56604;BME280;42486;47.478;19.036;2023-05-02T00:49:03;100306.78;;;13.06;53.52
56604;BME280;42486;47.478;19.036;2023-05-02T00:52:07;100310.09;;;13.08;55.68
56604;BME280;42486;47.478;19.036;2023-05-02T00:55:11;100308.44;;;13.07;55.19
56604;BME280;42486;47.478;19.036;2023-05-02T00:58:15;100305.09;;;13.05;55.76
56604;BME280;42486;47.478;19.036;2023-05-02T01:02:24;100311.19;;;13.06;54.73
56604;BME280;42486;47.478;19.036;2023-05-02T01:05:01;100316.13;;;12.99;55.83
56604;BME280;42486;47.478;19.036;2023-05-02T01:08:51;100304.38;;;12.93;56.39
56604;BME280;42486;47.478;19.036;2023-05-02T01:14:42;100317.47;;;12.93;57.11
56604;BME280;42486;47.478;19.036;2023-05-02T01:17:49;100314.41;;;12.88;57.59
56604;BME280;42486;47.478;19.036;2023-05-02T01:20:59;100307.56;;;12.76;58.88
56604;BME280;42486;47.478;19.036;2023-05-02T01:24:09;100309.62;;;12.72;60.12
56604;BME280;42486;47.478;19.036;2023-05-02T01:27:16;100308.78;;;12.72;61.76
56604;BME280;42486;47.478;19.036;2023-05-02T01:30:20;100302.94;;;12.68;58.92
56604;BME280;42486;47.478;19.036;2023-05-02T01:33:25;100306.72;;;12.75;57.94
56604;BME280;42486;47.478;19.036;2023-05-02T01:36:31;100307.69;;;12.74;60.15
56604;BME280;42486;47.478;19.036;2023-05-02T01:39:36;100299.00;;;12.74;60.06
56604;BME280;42486;47.478;19.036;2023-05-02T01:42:39;100296.88;;;12.68;59.41
56604;BME280;42486;47.478;19.036;2023-05-02T01:45:44;100300.03;;;12.62;56.72
56604;BME280;42486;47.478;19.036;2023-05-02T01:48:49;100301.81;;;12.61;57.30
56604;BME280;42486;47.478;19.036;2023-05-02T01:51:54;100294.22;;;12.58;58.72
56604;BME280;42486;47.478;19.036;2023-05-02T01:54:58;100293.75;;;12.53;58.81
56604;BME280;42486;47.478;19.036;2023-05-02T01:58:02;100290.06;;;12.55;60.39
56604;BME280;42486;47.478;19.036;2023-05-02T02:01:07;100289.00;;;12.47;58.47
56604;BME280;42486;47.478;19.036;2023-05-02T02:04:11;100292.41;;;12.38;59.69
56604;BME280;42486;47.478;19.036;2023-05-02T02:07:16;100284.09;;;12.32;61.25
56604;BME280;42486;47.478;19.036;2023-05-02T02:10:21;100288.59;;;12.30;62.07
56604;BME280;42486;47.478;19.036;2023-05-02T02:13:31;100288.56;;;12.21;62.13
56604;BME280;42486;47.478;19.036;2023-05-02T02:16:36;100283.69;;;12.16;63.61
56604;BME280;42486;47.478;19.036;2023-05-02T02:19:40;100282.13;;;12.14;61.30
56604;BME280;42486;47.478;19.036;2023-05-02T02:22:45;100274.37;;;12.12;62.65
56604;BME280;42486;47.478;19.036;2023-05-02T02:25:51;100271.56;;;12.04;61.10
56604;BME280;42486;47.478;19.036;2023-05-02T02:28:57;100271.94;;;11.99;62.76
56604;BME280;42486;47.478;19.036;2023-05-02T02:32:02;100278.25;;;11.97;63.75
56604;BME280;42486;47.478;19.036;2023-05-02T02:35:06;100276.47;;;11.97;64.59
56604;BME280;42486;47.478;19.036;2023-05-02T02:38:11;100273.16;;;11.84;63.24
56604;BME280;42486;47.478;19.036;2023-05-02T02:41:26;100270.53;;;11.84;64.12
56604;BME280;42486;47.478;19.036;2023-05-02T02:44:42;100274.69;;;11.75;66.69
56604;BME280;42486;47.478;19.036;2023-05-02T02:47:49;100274.13;;;11.72;64.61
56604;BME280;42486;47.478;19.036;2023-05-02T02:57:38;100272.38;;;11.50;63.59
56604;BME280;42486;47.478;19.036;2023-05-02T03:00:44;100275.47;;;11.55;63.08
56604;BME280;42486;47.478;19.036;2023-05-02T03:03:50;100274.16;;;11.60;63.34
56604;BME280;42486;47.478;19.036;2023-05-02T03:06:56;100274.25;;;11.59;62.49
56604;BME280;42486;47.478;19.036;2023-05-02T03:10:01;100282.00;;;11.60;61.83
56604;BME280;42486;47.478;19.036;2023-05-02T03:13:06;100281.28;;;11.58;62.45
56604;BME280;42486;47.478;19.036;2023-05-02T03:19:21;100282.34;;;11.56;65.83
56604;BME280;42486;47.478;19.036;2023-05-02T03:22:26;100295.69;;;11.53;67.10
56604;BME280;42486;47.478;19.036;2023-05-02T03:25:32;100287.38;;;11.48;66.12
56604;BME280;42486;47.478;19.036;2023-05-02T03:28:38;100292.00;;;11.44;65.91
56604;BME280;42486;47.478;19.036;2023-05-02T03:31:44;100281.53;;;11.33;66.25
56604;BME280;42486;47.478;19.036;2023-05-02T03:34:48;100284.78;;;11.25;66.35
56604;BME280;42486;47.478;19.036;2023-05-02T03:37:52;100291.16;;;11.32;68.10
56604;BME280;42486;47.478;19.036;2023-05-02T03:40:56;100292.59;;;11.36;68.25
56604;BME280;42486;47.478;19.036;2023-05-02T03:44:00;100293.19;;;11.29;66.23
56604;BME280;42486;47.478;19.036;2023-05-02T03:47:05;100291.16;;;11.32;66.22
56604;BME280;42486;47.478;19.036;2023-05-02T03:50:10;100298.09;;;11.33;66.50
56604;BME280;42486;47.478;19.036;2023-05-02T03:53:14;100305.44;;;11.28;66.45
56604;BME280;42486;47.478;19.036;2023-05-02T03:56:18;100302.84;;;11.28;67.37
56604;BME280;42486;47.478;19.036;2023-05-02T03:59:25;100302.25;;;11.36;67.62
56604;BME280;42486;47.478;19.036;2023-05-02T04:02:28;100303.78;;;11.50;69.57
56604;BME280;42486;47.478;19.036;2023-05-02T04:05:35;100307.81;;;11.54;66.46
56604;BME280;42486;47.478;19.036;2023-05-02T04:08:39;100320.19;;;11.63;66.94
56604;BME280;42486;47.478;19.036;2023-05-02T04:11:45;100316.13;;;11.59;66.79
56604;BME280;42486;47.478;19.036;2023-05-02T04:14:49;100308.16;;;11.60;66.95
56604;BME280;42486;47.478;19.036;2023-05-02T04:17:56;100312.34;;;11.63;68.09
56604;BME280;42486;47.478;19.036;2023-05-02T04:21:00;100309.81;;;11.61;66.08
56604;BME280;42486;47.478;19.036;2023-05-02T04:24:04;100322.53;;;11.77;68.60
56604;BME280;42486;47.478;19.036;2023-05-02T04:27:07;100323.12;;;11.81;67.10
56604;BME280;42486;47.478;19.036;2023-05-02T04:30:13;100322.53;;;11.77;65.68
56604;BME280;42486;47.478;19.036;2023-05-02T04:33:16;100319.56;;;11.82;67.29
56604;BME280;42486;47.478;19.036;2023-05-02T04:36:19;100323.38;;;12.00;67.17
56604;BME280;42486;47.478;19.036;2023-05-02T04:39:23;100323.22;;;12.13;66.20
56604;BME280;42486;47.478;19.036;2023-05-02T04:42:26;100338.13;;;12.33;66.58
56604;BME280;42486;47.478;19.036;2023-05-02T04:45:31;100334.47;;;12.99;63.10
56604;BME280;42486;47.478;19.036;2023-05-02T04:48:34;100332.22;;;13.67;61.08
56604;BME280;42486;47.478;19.036;2023-05-02T04:51:38;100335.37;;;14.60;56.17
56604;BME280;42486;47.478;19.036;2023-05-02T04:54:41;100345.75;;;15.00;54.60
56604;BME280;42486;47.478;19.036;2023-05-02T04:57:46;100342.13;;;14.91;58.18
56604;BME280;42486;47.478;19.036;2023-05-02T05:00:50;100339.72;;;15.17;57.77
56604;BME280;42486;47.478;19.036;2023-05-02T05:03:54;100341.72;;;15.06;55.93
56604;BME280;42486;47.478;19.036;2023-05-02T05:06:57;100346.81;;;15.07;59.60
56604;BME280;42486;47.478;19.036;2023-05-02T05:10:02;100349.91;;;14.83;57.36
56604;BME280;42486;47.478;19.036;2023-05-02T05:13:05;100344.34;;;15.06;56.86
56604;BME280;42486;47.478;19.036;2023-05-02T05:16:08;100352.78;;;15.47;55.23
56604;BME280;42486;47.478;19.036;2023-05-02T05:19:12;100353.31;;;15.50;56.04
56604;BME280;42486;47.478;19.036;2023-05-02T05:22:18;100361.72;;;15.26;56.89
56604;BME280;42486;47.478;19.036;2023-05-02T05:25:21;100353.94;;;14.87;58.33
56604;BME280;42486;47.478;19.036;2023-05-02T05:28:26;100350.03;;;15.01;56.98
56604;BME280;42486;47.478;19.036;2023-05-02T05:31:31;100357.66;;;15.41;58.45
56604;BME280;42486;47.478;19.036;2023-05-02T05:34:36;100360.50;;;15.95;56.92
56604;BME280;42486;47.478;19.036;2023-05-02T05:37:39;100373.34;;;16.62;54.19
56604;BME280;42486;47.478;19.036;2023-05-02T05:40:43;100373.97;;;16.91;55.05
56604;BME280;42486;47.478;19.036;2023-05-02T05:43:48;100371.72;;;16.79;54.94
56604;BME280;42486;47.478;19.036;2023-05-02T05:46:54;100379.03;;;16.49;52.66
56604;BME280;42486;47.478;19.036;2023-05-02T05:49:57;100380.06;;;16.56;55.60
56604;BME280;42486;47.478;19.036;2023-05-02T05:53:00;100386.25;;;16.65;52.52
56604;BME280;42486;47.478;19.036;2023-05-02T05:56:10;100383.28;;;17.04;54.53
56604;BME280;42486;47.478;19.036;2023-05-02T05:59:14;100389.25;;;17.32;52.11
56604;BME280;42486;47.478;19.036;2023-05-02T06:02:18;100393.47;;;18.11;48.88
56604;BME280;42486;47.478;19.036;2023-05-02T06:05:21;100388.47;;;19.72;45.06
56604;BME280;42486;47.478;19.036;2023-05-02T06:08:24;100400.13;;;20.79;44.07
56604;BME280;42486;47.478;19.036;2023-05-02T06:11:27;100394.81;;;20.33;41.42
56604;BME280;42486;47.478;19.036;2023-05-02T06:14:31;100401.88;;;20.10;42.03
56604;BME280;42486;47.478;19.036;2023-05-02T06:17:36;100400.72;;;19.65;43.51
56604;BME280;42486;47.478;19.036;2023-05-02T06:20:43;100399.31;;;19.37;44.09
56604;BME280;42486;47.478;19.036;2023-05-02T06:23:49;100394.34;;;17.86;47.16
56604;BME280;42486;47.478;19.036;2023-05-02T06:26:52;100392.13;;;18.15;48.86
56604;BME280;42486;47.478;19.036;2023-05-02T06:29:56;100389.44;;;17.65;49.85
56604;BME280;42486;47.478;19.036;2023-05-02T06:33:04;100401.00;;;17.98;48.56
56604;BME280;42486;47.478;19.036;2023-05-02T06:36:08;100393.28;;;17.78;49.30
56604;BME280;42486;47.478;19.036;2023-05-02T06:39:11;100389.72;;;17.53;49.71
56604;BME280;42486;47.478;19.036;2023-05-02T06:42:15;100402.75;;;17.55;51.09
56604;BME280;42486;47.478;19.036;2023-05-02T06:45:20;100399.06;;;17.39;51.08
56604;BME280;42486;47.478;19.036;2023-05-02T06:48:24;100397.34;;;17.65;51.13
56604;BME280;42486;47.478;19.036;2023-05-02T06:51:32;100403.53;;;18.16;50.41
56604;BME280;42486;47.478;19.036;2023-05-02T06:54:34;100407.72;;;19.57;46.49
56604;BME280;42486;47.478;19.036;2023-05-02T06:57:41;100394.59;;;19.72;44.70
56604;BME280;42486;47.478;19.036;2023-05-02T07:00:46;100403.84;;;19.12;46.25
56604;BME280;42486;47.478;19.036;2023-05-02T07:03:56;100395.25;;;18.86;48.29
56604;BME280;42486;47.478;19.036;2023-05-02T07:06:59;100400.03;;;19.07;48.41
56604;BME280;42486;47.478;19.036;2023-05-02T07:10:03;100402.50;;;19.00;46.13
56604;BME280;42486;47.478;19.036;2023-05-02T07:13:16;100410.19;;;19.59;46.44
56604;BME280;42486;47.478;19.036;2023-05-02T07:16:24;100414.25;;;22.58;39.22
56604;BME280;42486;47.478;19.036;2023-05-02T07:19:27;100410.53;;;25.54;33.37
56604;BME280;42486;47.478;19.036;2023-05-02T07:22:31;100405.41;;;24.53;34.19
56604;BME280;42486;47.478;19.036;2023-05-02T07:25:40;100415.72;;;26.07;33.09
56604;BME280;42486;47.478;19.036;2023-05-02T07:28:48;100413.41;;;28.23;29.48
56604;BME280;42486;47.478;19.036;2023-05-02T07:31:53;100422.66;;;29.99;27.26
56604;BME280;42486;47.478;19.036;2023-05-02T07:35:00;100424.09;;;30.92;26.20
56604;BME280;42486;47.478;19.036;2023-05-02T07:38:05;100434.63;;;31.11;24.40
56604;BME280;42486;47.478;19.036;2023-05-02T07:41:12;100431.56;;;29.99;25.56
56604;BME280;42486;47.478;19.036;2023-05-02T07:44:17;100434.41;;;28.87;26.71
56604;BME280;42486;47.478;19.036;2023-05-02T07:47:21;100426.22;;;28.09;28.27
56604;BME280;42486;47.478;19.036;2023-05-02T07:50:24;100433.00;;;27.57;28.21
56604;BME280;42486;47.478;19.036;2023-05-02T07:53:30;100434.09;;;28.23;28.91
56604;BME280;42486;47.478;19.036;2023-05-02T07:56:44;100433.31;;;29.18;27.44
56604;BME280;42486;47.478;19.036;2023-05-02T07:59:50;100442.59;;;29.86;26.35
56604;BME280;42486;47.478;19.036;2023-05-02T08:02:53;100438.19;;;29.80;26.20
56604;BME280;42486;47.478;19.036;2023-05-02T08:05:56;100435.94;;;30.29;25.06
56604;BME280;42486;47.478;19.036;2023-05-02T08:09:00;100430.03;;;28.02;28.08
56604;BME280;42486;47.478;19.036;2023-05-02T08:12:02;100418.81;;;25.33;31.61
56604;BME280;42486;47.478;19.036;2023-05-02T08:15:07;100423.81;;;23.80;35.25
56604;BME280;42486;47.478;19.036;2023-05-02T08:18:17;100422.34;;;22.50;37.81
56604;BME280;42486;47.478;19.036;2023-05-02T08:21:23;100418.88;;;21.83;41.92
56604;BME280;42486;47.478;19.036;2023-05-02T08:24:26;100422.38;;;21.01;41.26
56604;BME280;42486;47.478;19.036;2023-05-02T08:27:30;100419.03;;;20.30;43.77
56604;BME280;42486;47.478;19.036;2023-05-02T08:30:34;100422.56;;;20.54;43.50
56604;BME280;42486;47.478;19.036;2023-05-02T08:33:37;100410.59;;;20.81;44.03
56604;BME280;42486;47.478;19.036;2023-05-02T08:36:42;100412.06;;;21.21;42.90
56604;BME280;42486;47.478;19.036;2023-05-02T08:39:48;100410.53;;;20.89;43.60
56604;BME280;42486;47.478;19.036;2023-05-02T08:42:53;100401.16;;;21.16;44.86
56604;BME280;42486;47.478;19.036;2023-05-02T08:46:03;100407.06;;;21.56;43.25
56604;BME280;42486;47.478;19.036;2023-05-02T08:49:06;100411.28;;;21.95;41.80
56604;BME280;42486;47.478;19.036;2023-05-02T08:52:14;100401.50;;;21.66;41.34
56604;BME280;42486;47.478;19.036;2023-05-02T08:55:22;100402.66;;;21.33;42.11
56604;BME280;42486;47.478;19.036;2023-05-02T08:58:31;100403.53;;;21.49;42.03
56604;BME280;42486;47.478;19.036;2023-05-02T09:01:36;100405.97;;;21.80;42.52
56604;BME280;42486;47.478;19.036;2023-05-02T09:04:45;100398.25;;;22.00;40.82
56604;BME280;42486;47.478;19.036;2023-05-02T09:07:55;100399.22;;;22.14;43.42
56604;BME280;42486;47.478;19.036;2023-05-02T09:11:01;100387.25;;;22.39;41.76
56604;BME280;42486;47.478;19.036;2023-05-02T09:14:14;100387.44;;;22.59;40.91
56604;BME280;42486;47.478;19.036;2023-05-02T09:17:17;100393.19;;;22.41;40.61
56604;BME280;42486;47.478;19.036;2023-05-02T09:20:21;100383.28;;;21.99;41.71
56604;BME280;42486;47.478;19.036;2023-05-02T09:23:31;100386.25;;;22.26;41.25
56604;BME280;42486;47.478;19.036;2023-05-02T09:26:34;100382.63;;;22.48;38.09
56604;BME280;42486;47.478;19.036;2023-05-02T09:29:41;100394.06;;;22.27;38.63
56604;BME280;42486;47.478;19.036;2023-05-02T09:32:49;100384.28;;;21.98;40.62
56604;BME280;42486;47.478;19.036;2023-05-02T09:35:53;100386.66;;;22.08;38.44
56604;BME280;42486;47.478;19.036;2023-05-02T09:38:57;100392.87;;;22.15;39.80
56604;BME280;42486;47.478;19.036;2023-05-02T09:42:13;100390.28;;;22.36;40.25
56604;BME280;42486;47.478;19.036;2023-05-02T09:45:33;100392.94;;;22.79;39.63
56604;BME280;42486;47.478;19.036;2023-05-02T09:51:50;100374.47;;;22.78;38.18
56604;BME280;42486;47.478;19.036;2023-05-02T09:55:20;100363.66;;;23.07;37.78
56604;BME280;42486;47.478;19.036;2023-05-02T09:58:26;100382.19;;;22.66;38.39
56604;BME280;42486;47.478;19.036;2023-05-02T10:01:31;100373.28;;;23.02;37.81
56604;BME280;42486;47.478;19.036;2023-05-02T10:04:34;100377.97;;;23.28;36.13
56604;BME280;42486;47.478;19.036;2023-05-02T10:07:38;100382.56;;;23.13;36.76
56604;BME280;42486;47.478;19.036;2023-05-02T10:10:44;100378.84;;;23.35;36.67
56604;BME280;42486;47.478;19.036;2023-05-02T10:13:48;100379.91;;;23.47;37.25
56604;BME280;42486;47.478;19.036;2023-05-02T10:16:58;100386.03;;;23.76;37.11
56604;BME280;42486;47.478;19.036;2023-05-02T10:20:06;100376.69;;;24.07;36.30
56604;BME280;42486;47.478;19.036;2023-05-02T10:23:09;100371.41;;;24.13;36.48
56604;BME280;42486;47.478;19.036;2023-05-02T10:26:14;100366.72;;;24.35;36.96
56604;BME280;42486;47.478;19.036;2023-05-02T10:29:16;100369.66;;;24.47;36.47
56604;BME280;42486;47.478;19.036;2023-05-02T10:32:19;100369.50;;;23.94;35.93
56604;BME280;42486;47.478;19.036;2023-05-02T10:35:25;100360.91;;;24.05;35.70
56604;BME280;42486;47.478;19.036;2023-05-02T10:38:29;100377.94;;;23.63;35.97
56604;BME280;42486;47.478;19.036;2023-05-02T10:41:33;100371.03;;;22.84;37.20
56604;BME280;42486;47.478;19.036;2023-05-02T10:44:38;100368.59;;;22.82;38.51
56604;BME280;42486;47.478;19.036;2023-05-02T10:47:41;100367.22;;;23.56;38.18
56604;BME280;42486;47.478;19.036;2023-05-02T10:50:47;100362.37;;;24.28;36.85
56604;BME280;42486;47.478;19.036;2023-05-02T10:53:51;100363.28;;;24.55;37.47
56604;BME280;42486;47.478;19.036;2023-05-02T11:17:04;100335.22;;;23.98;37.14
56604;BME280;42486;47.478;19.036;2023-05-02T11:26:20;100335.13;;;24.79;35.85
56604;BME280;42486;47.478;19.036;2023-05-02T11:33:10;100332.00;;;24.29;38.10
56604;BME280;42486;47.478;19.036;2023-05-02T11:36:13;100316.13;;;23.52;38.41
56604;BME280;42486;47.478;19.036;2023-05-02T11:39:19;100334.44;;;23.62;38.18
56604;BME280;42486;47.478;19.036;2023-05-02T11:42:29;100329.53;;;23.59;38.95
56604;BME280;42486;47.478;19.036;2023-05-02T11:45:34;100319.47;;;24.29;37.03
56604;BME280;42486;47.478;19.036;2023-05-02T11:48:40;100322.13;;;24.23;37.37
56604;BME280;42486;47.478;19.036;2023-05-02T11:51:43;100312.81;;;23.99;38.27
56604;BME280;42486;47.478;19.036;2023-05-02T11:54:45;100314.91;;;23.97;39.01
56604;BME280;42486;47.478;19.036;2023-05-02T11:57:48;100315.13;;;24.02;38.92
56604;BME280;42486;47.478;19.036;2023-05-02T12:00:51;100305.09;;;24.24;36.58
56604;BME280;42486;47.478;19.036;2023-05-02T12:04:03;100308.37;;;24.99;36.51
56604;BME280;42486;47.478;19.036;2023-05-02T12:07:06;100307.72;;;25.10;35.39
56604;BME280;42486;47.478;19.036;2023-05-02T12:10:13;100306.13;;;24.76;36.38
56604;BME280;42486;47.478;19.036;2023-05-02T12:13:16;100305.13;;;24.50;35.87
56604;BME280;42486;47.478;19.036;2023-05-02T12:16:18;100299.31;;;24.20;37.14
56604;BME280;42486;47.478;19.036;2023-05-02T12:19:22;100301.97;;;24.20;34.74
56604;BME280;42486;47.478;19.036;2023-05-02T12:22:26;100298.31;;;24.68;35.65
56604;BME280;42486;47.478;19.036;2023-05-02T12:25:30;100293.75;;;25.01;33.94
56604;BME280;42486;47.478;19.036;2023-05-02T12:28:35;100302.59;;;25.09;33.35
56604;BME280;42486;47.478;19.036;2023-05-02T12:31:52;100299.94;;;24.89;33.41
56604;BME280;42486;47.478;19.036;2023-05-02T12:34:56;100295.59;;;25.08;33.54
56604;BME280;42486;47.478;19.036;2023-05-02T12:41:13;100289.47;;;24.80;34.09
56604;BME280;42486;47.478;19.036;2023-05-02T12:44:16;100291.06;;;25.28;32.82
56604;BME280;42486;47.478;19.036;2023-05-02T12:47:43;100301.59;;;24.83;32.36
56604;BME280;42486;47.478;19.036;2023-05-02T12:50:45;100297.50;;;24.34;33.32
56604;BME280;42486;47.478;19.036;2023-05-02T12:53:48;100300.63;;;24.57;32.66
56604;BME280;42486;47.478;19.036;2023-05-02T12:56:50;100290.94;;;24.56;33.86
56604;BME280;42486;47.478;19.036;2023-05-02T12:59:53;100286.62;;;24.69;34.13
56604;BME280;42486;47.478;19.036;2023-05-02T13:02:56;100292.38;;;24.46;35.13
56604;BME280;42486;47.478;19.036;2023-05-02T13:06:00;100287.63;;;24.28;34.54
56604;BME280;42486;47.478;19.036;2023-05-02T13:09:04;100292.09;;;23.94;35.87
56604;BME280;42486;47.478;19.036;2023-05-02T13:12:07;100289.81;;;23.84;36.18
56604;BME280;42486;47.478;19.036;2023-05-02T13:15:11;100282.53;;;23.65;36.91
56604;BME280;42486;47.478;19.036;2023-05-02T13:18:16;100280.03;;;23.50;36.14
56604;BME280;42486;47.478;19.036;2023-05-02T13:21:21;100271.16;;;23.36;36.92
56604;BME280;42486;47.478;19.036;2023-05-02T13:24:26;100257.28;;;23.13;36.54
56604;BME280;42486;47.478;19.036;2023-05-02T13:27:29;100276.69;;;23.00;37.40
56604;BME280;42486;47.478;19.036;2023-05-02T13:30:32;100272.62;;;22.76;37.17
56604;BME280;42486;47.478;19.036;2023-05-02T13:33:35;100267.53;;;22.81;37.51
56604;BME280;42486;47.478;19.036;2023-05-02T13:36:39;100265.22;;;22.99;37.11
56604;BME280;42486;47.478;19.036;2023-05-02T13:39:47;100263.25;;;23.15;36.36
56604;BME280;42486;47.478;19.036;2023-05-02T13:42:50;100267.44;;;23.30;37.02
56604;BME280;42486;47.478;19.036;2023-05-02T13:45:53;100267.91;;;23.47;36.28
56604;BME280;42486;47.478;19.036;2023-05-02T13:48:56;100265.88;;;23.49;36.25
56604;BME280;42486;47.478;19.036;2023-05-02T13:51:59;100259.25;;;23.39;35.97
56604;BME280;42486;47.478;19.036;2023-05-02T13:55:03;100256.12;;;23.28;36.42
56604;BME280;42486;47.478;19.036;2023-05-02T13:58:06;100263.69;;;23.18;37.13
56604;BME280;42486;47.478;19.036;2023-05-02T14:01:09;100267.78;;;23.21;37.90
56604;BME280;42486;47.478;19.036;2023-05-02T14:04:12;100259.78;;;23.21;36.10
56604;BME280;42486;47.478;19.036;2023-05-02T14:07:15;100255.50;;;23.26;36.08
56604;BME280;42486;47.478;19.036;2023-05-02T14:10:18;100263.94;;;23.30;35.00
56604;BME280;42486;47.478;19.036;2023-05-02T14:13:22;100261.06;;;23.32;36.66
56604;BME280;42486;47.478;19.036;2023-05-02T14:16:26;100267.84;;;23.34;35.55
56604;BME280;42486;47.478;19.036;2023-05-02T14:19:29;100258.41;;;23.32;35.48
56604;BME280;42486;47.478;19.036;2023-05-02T14:22:32;100260.59;;;23.15;35.69
56604;BME280;42486;47.478;19.036;2023-05-02T14:25:36;100264.13;;;23.22;35.54
56604;BME280;42486;47.478;19.036;2023-05-02T14:28:42;100266.56;;;23.17;35.83
56604;BME280;42486;47.478;19.036;2023-05-02T14:31:45;100266.31;;;23.12;36.28
56604;BME280;42486;47.478;19.036;2023-05-02T14:34:49;100261.81;;;23.12;36.61
56604;BME280;42486;47.478;19.036;2023-05-02T14:37:53;100258.09;;;23.06;35.96
56604;BME280;42486;47.478;19.036;2023-05-02T14:40:56;100264.19;;;23.00;36.55
56604;BME280;42486;47.478;19.036;2023-05-02T14:44:01;100260.91;;;22.98;35.97
56604;BME280;42486;47.478;19.036;2023-05-02T14:47:04;100266.53;;;22.82;37.02
56604;BME280;42486;47.478;19.036;2023-05-02T14:50:07;100261.31;;;22.74;37.26
56604;BME280;42486;47.478;19.036;2023-05-02T14:53:11;100265.66;;;22.75;37.31
56604;BME280;42486;47.478;19.036;2023-05-02T14:56:14;100266.00;;;22.65;36.62
56604;BME280;42486;47.478;19.036;2023-05-02T14:59:19;100258.78;;;22.59;38.05
56604;BME280;42486;47.478;19.036;2023-05-02T15:02:22;100274.91;;;22.51;38.14
56604;BME280;42486;47.478;19.036;2023-05-02T15:05:26;100262.97;;;22.47;37.82
56604;BME280;42486;47.478;19.036;2023-05-02T15:08:28;100264.56;;;22.41;37.08
56604;BME280;42486;47.478;19.036;2023-05-02T15:11:32;100268.44;;;22.38;37.95
56604;BME280;42486;47.478;19.036;2023-05-02T15:14:35;100277.97;;;22.26;37.88
56604;BME280;42486;47.478;19.036;2023-05-02T15:17:38;100280.72;;;22.18;38.12
56604;BME280;42486;47.478;19.036;2023-05-02T15:20:41;100274.53;;;22.11;39.82
56604;BME280;42486;47.478;19.036;2023-05-02T15:23:46;100274.66;;;22.03;38.84
56604;BME280;42486;47.478;19.036;2023-05-02T15:26:49;100257.75;;;22.10;39.32
56604;BME280;42486;47.478;19.036;2023-05-02T15:29:52;100261.00;;;22.12;39.39
56604;BME280;42486;47.478;19.036;2023-05-02T15:32:55;100263.25;;;22.09;37.14
56604;BME280;42486;47.478;19.036;2023-05-02T15:35:59;100256.53;;;22.13;37.53
56604;BME280;42486;47.478;19.036;2023-05-02T15:39:03;100261.41;;;22.09;36.92
56604;BME280;42486;47.478;19.036;2023-05-02T15:42:05;100255.09;;;22.10;37.62
56604;BME280;42486;47.478;19.036;2023-05-02T15:45:12;100255.38;;;22.01;38.74
56604;BME280;42486;47.478;19.036;2023-05-02T15:48:15;100260.06;;;21.98;37.62
56604;BME280;42486;47.478;19.036;2023-05-02T15:51:19;100256.97;;;21.95;37.63
56604;BME280;42486;47.478;19.036;2023-05-02T15:54:22;100251.28;;;21.98;38.27
56604;BME280;42486;47.478;19.036;2023-05-02T15:57:25;100255.69;;;21.91;38.69
56604;BME280;42486;47.478;19.036;2023-05-02T16:00:27;100254.69;;;21.92;38.64
56604;BME280;42486;47.478;19.036;2023-05-02T16:03:31;100250.97;;;22.08;38.50
56604;BME280;42486;47.478;19.036;2023-05-02T16:06:34;100250.56;;;22.11;38.41
56604;BME280;42486;47.478;19.036;2023-05-02T16:09:38;100254.88;;;22.12;40.18
56604;BME280;42486;47.478;19.036;2023-05-02T16:12:41;100245.38;;;22.03;39.08
56604;BME280;42486;47.478;19.036;2023-05-02T16:15:45;100253.03;;;21.91;40.15
56604;BME280;42486;47.478;19.036;2023-05-02T16:18:54;100249.12;;;21.87;40.42
56604;BME280;42486;47.478;19.036;2023-05-02T16:21:57;100250.50;;;21.83;39.42
56604;BME280;42486;47.478;19.036;2023-05-02T16:25:00;100255.00;;;21.82;40.03
56604;BME280;42486;47.478;19.036;2023-05-02T16:28:03;100251.56;;;21.88;41.03
56604;BME280;42486;47.478;19.036;2023-05-02T16:31:06;100256.84;;;21.82;40.82
56604;BME280;42486;47.478;19.036;2023-05-02T16:34:13;100253.66;;;21.71;41.99
56604;BME280;42486;47.478;19.036;2023-05-02T16:37:16;100253.50;;;21.58;43.43
56604;BME280;42486;47.478;19.036;2023-05-02T16:40:19;100259.31;;;21.47;44.25
56604;BME280;42486;47.478;19.036;2023-05-02T16:43:22;100257.37;;;21.41;45.56